createdAt,value
2023-03-05T00:01:36.155Z,85.91
2023-03-05T00:04:04.387Z,86.16
2023-03-05T00:06:33.521Z,86.60
2023-03-05T00:09:00.505Z,85.16
2023-03-05T00:11:28.363Z,85.42
2023-03-05T00:13:55.930Z,85.85
2023-03-05T00:16:30.417Z,85.99
2023-03-05T00:18:59.186Z,86.89
2023-03-05T00:21:34.921Z,86.35
2023-03-05T00:24:02.549Z,86.44
2023-03-05T00:26:32.058Z,86.68
2023-03-05T00:28:58.618Z,86.70
2023-03-05T00:31:27.749Z,86.99
2023-03-05T00:33:57.027Z,86.38
2023-03-05T00:36:25.962Z,86.27
2023-03-05T00:38:52.645Z,86.78
2023-03-05T00:41:19.359Z,85.62
2023-03-05T00:43:48.375Z,86.05
2023-03-05T00:46:14.949Z,86.11
2023-03-05T00:48:46.455Z,86.86
2023-03-05T00:51:14.044Z,87.02
2023-03-05T00:53:46.553Z,86.30
2023-03-05T00:56:12.947Z,86.70
2023-03-05T00:58:39.760Z,86.78
2023-03-05T01:01:06.760Z,87.32
2023-03-05T01:03:35.016Z,87.27
2023-03-05T01:06:05.502Z,87.58
2023-03-05T01:08:35.780Z,87.46
2023-03-05T01:11:04.214Z,87.43
2023-03-05T01:13:37.138Z,87.37
2023-03-05T01:16:04.171Z,87.34
2023-03-05T01:18:30.622Z,87.97
2023-03-05T01:20:57.043Z,87.71
2023-03-05T01:23:23.414Z,87.72
2023-03-05T01:25:54.742Z,88.23
2023-03-05T01:28:21.318Z,88.49
2023-03-05T01:30:48.018Z,88.00
2023-03-05T01:33:19.095Z,87.73
2023-03-05T01:35:55.598Z,88.24
2023-03-05T01:38:23.662Z,88.39
2023-03-05T01:40:50.031Z,88.27
2023-03-05T01:43:29.018Z,87.47
2023-03-05T01:46:23.316Z,88.04
2023-03-05T01:49:15.009Z,87.63
2023-03-05T01:52:00.488Z,88.30
2023-03-05T01:54:32.681Z,88.07
2023-03-05T01:57:04.935Z,87.60
2023-03-05T01:59:33.954Z,88.48
2023-03-05T02:02:00.380Z,88.68
2023-03-05T02:04:36.211Z,88.50
2023-03-05T02:07:05.804Z,89.35
2023-03-05T02:09:32.456Z,88.23
2023-03-05T02:11:59.377Z,88.81
2023-03-05T02:14:26.830Z,89.39
2023-03-05T02:16:53.349Z,88.46
2023-03-05T02:19:19.849Z,88.76
2023-03-05T02:21:48.390Z,89.41
2023-03-05T02:24:32.464Z,88.83
2023-03-05T02:26:59.940Z,88.90
2023-03-05T02:29:30.569Z,87.78
2023-03-05T02:31:57.165Z,88.31
2023-03-05T02:34:28.920Z,88.49
2023-03-05T02:36:55.293Z,88.32
2023-03-05T02:39:21.675Z,87.97
2023-03-05T02:41:48.029Z,88.95
2023-03-05T02:44:14.353Z,89.71
2023-03-05T02:46:40.728Z,89.66
2023-03-05T02:49:07.102Z,89.14
2023-03-05T02:51:33.497Z,88.45
2023-03-05T02:53:59.868Z,89.07
2023-03-05T02:56:26.447Z,89.25
2023-03-05T02:58:52.788Z,89.26
2023-03-05T03:01:19.242Z,90.01
2023-03-05T03:03:45.645Z,89.00
2023-03-05T03:06:11.975Z,88.26
2023-03-05T03:08:38.389Z,89.01
2023-03-05T03:11:06.752Z,89.40
2023-03-05T03:13:53.291Z,88.94
2023-03-05T03:16:20.914Z,88.80
2023-03-05T03:18:49.577Z,89.84
2023-03-05T03:21:24.516Z,89.43
2023-03-05T03:23:55.225Z,88.91
2023-03-05T03:26:21.885Z,89.66
2023-03-05T03:28:48.322Z,90.00
2023-03-05T03:31:16.098Z,89.98
2023-03-05T03:33:42.622Z,90.52
2023-03-05T03:36:11.776Z,90.59
2023-03-05T03:38:40.604Z,90.81
2023-03-05T03:41:09.514Z,90.53
2023-03-05T03:43:47.554Z,91.13
2023-03-05T03:46:16.643Z,91.05
2023-03-05T03:48:42.992Z,90.89
2023-03-05T03:51:09.352Z,90.46
2023-03-05T03:53:35.935Z,90.70
2023-03-05T03:56:02.525Z,91.44
2023-03-05T03:58:30.521Z,91.15
2023-03-05T04:00:57.132Z,90.64
2023-03-05T04:03:24.728Z,91.03
2023-03-05T04:05:51.171Z,91.81
2023-03-05T04:08:17.590Z,91.85
2023-03-05T04:10:44.587Z,91.59
2023-03-05T04:13:12.166Z,91.08
2023-03-05T04:15:38.581Z,91.37
2023-03-05T04:18:06.321Z,91.54
2023-03-05T04:20:35.366Z,90.00
2023-03-05T04:23:10.759Z,90.61
2023-03-05T04:25:37.106Z,90.58
2023-03-05T04:28:04.675Z,90.76
2023-03-05T04:30:33.520Z,90.84
2023-03-05T04:32:59.844Z,91.59
2023-03-05T04:35:26.603Z,91.39
2023-03-05T04:37:56.149Z,92.19
2023-03-05T04:40:22.601Z,92.13
2023-03-05T04:42:49.020Z,92.43
2023-03-05T04:45:15.432Z,92.44
2023-03-05T04:47:41.796Z,92.06
2023-03-05T04:50:11.536Z,92.98
2023-03-05T04:52:40.506Z,92.23
2023-03-05T04:55:08.909Z,92.75
2023-03-05T04:57:46.028Z,92.67
2023-03-05T05:00:14.750Z,92.74
2023-03-05T05:02:43.275Z,92.81
2023-03-05T05:05:13.260Z,93.22
2023-03-05T05:07:41.323Z,93.54
2023-03-05T05:10:10.458Z,93.84
2023-03-05T05:12:37.496Z,94.27
2023-03-05T05:15:08.100Z,94.33
2023-03-05T05:17:34.774Z,93.82
2023-03-05T05:20:02.342Z,93.98
2023-03-05T05:22:29.243Z,94.00
2023-03-05T05:25:04.314Z,93.44
2023-03-05T05:27:30.802Z,93.96
2023-03-05T05:29:59.176Z,94.44
2023-03-05T05:32:30.555Z,94.41
2023-03-05T05:35:00.334Z,94.58
2023-03-05T05:37:28.398Z,94.42
2023-03-05T05:39:54.794Z,93.66
2023-03-05T05:42:24.305Z,93.73
2023-03-05T05:44:50.828Z,93.80
2023-03-05T05:47:26.370Z,94.54
2023-03-05T05:49:52.855Z,94.97
2023-03-05T05:52:21.936Z,94.61
2023-03-05T05:54:49.099Z,94.55
2023-03-05T05:57:15.686Z,94.48
2023-03-05T05:59:42.080Z,94.72
2023-03-05T06:02:10.927Z,95.24
2023-03-05T06:04:37.685Z,94.39
2023-03-05T06:07:05.190Z,94.59
2023-03-05T06:09:31.552Z,95.47
2023-03-05T06:12:00.320Z,94.83
2023-03-05T06:14:28.966Z,94.69
2023-03-05T06:16:55.377Z,94.76
2023-03-05T06:19:21.739Z,94.34
2023-03-05T06:21:51.746Z,94.40
2023-03-05T06:24:18.202Z,93.70
2023-03-05T06:26:47.638Z,94.09
2023-03-05T06:29:13.954Z,94.20
2023-03-05T06:31:41.150Z,93.43
2023-03-05T06:34:07.501Z,94.12
2023-03-05T06:36:41.373Z,94.61
2023-03-05T06:39:12.762Z,94.50
2023-03-05T06:41:39.112Z,94.43
2023-03-05T06:44:06.688Z,95.59
2023-03-05T06:46:36.029Z,95.41
2023-03-05T06:49:03.449Z,95.38
2023-03-05T06:51:32.950Z,95.32
2023-03-05T06:54:04.517Z,95.14
2023-03-05T06:56:31.308Z,94.84
2023-03-05T06:58:58.157Z,94.32
2023-03-05T07:01:24.593Z,94.18
2023-03-05T07:03:54.620Z,93.52
2023-03-05T07:06:22.191Z,93.16
2023-03-05T07:08:52.006Z,93.28
2023-03-05T07:11:20.651Z,92.93
2023-03-05T07:13:47.748Z,92.56
2023-03-05T07:16:17.473Z,92.68
2023-03-05T07:18:44.613Z,91.32
2023-03-05T07:21:15.812Z,91.70
2023-03-05T07:23:42.170Z,92.50
2023-03-05T07:26:09.334Z,92.12
2023-03-05T07:28:35.733Z,92.44
2023-03-05T07:31:07.451Z,91.14
2023-03-05T07:33:34.753Z,91.36
2023-03-05T07:36:01.417Z,91.87
2023-03-05T07:38:28.122Z,92.18
2023-03-05T07:40:54.493Z,91.34
2023-03-05T07:43:23.569Z,90.94
2023-03-05T07:45:49.906Z,91.42
2023-03-05T07:48:18.511Z,90.98
2023-03-05T07:50:45.239Z,92.04
2023-03-05T07:53:14.530Z,91.37
2023-03-05T07:55:50.522Z,90.73
2023-03-05T07:58:17.982Z,90.80
2023-03-05T08:00:45.625Z,90.02
2023-03-05T08:03:12.008Z,88.96
2023-03-05T08:05:42.268Z,89.49
2023-03-05T08:08:11.685Z,88.90
2023-03-05T08:10:38.166Z,87.50
2023-03-05T08:13:05.007Z,87.37
2023-03-05T08:15:31.678Z,88.18
2023-03-05T08:17:58.562Z,87.85
2023-03-05T08:20:24.865Z,87.06
2023-03-05T08:22:51.219Z,87.37
2023-03-05T08:25:17.651Z,87.52
2023-03-05T08:27:45.461Z,87.42
2023-03-05T08:30:16.889Z,87.63
2023-03-05T08:32:43.298Z,87.58
2023-03-05T08:35:10.132Z,87.26
2023-03-05T08:37:37.045Z,86.24
2023-03-05T08:40:06.396Z,85.62
2023-03-05T08:42:32.783Z,84.58
2023-03-05T08:45:00.234Z,84.91
2023-03-05T08:47:26.845Z,85.35
2023-03-05T08:49:53.612Z,84.52
2023-03-05T08:52:19.897Z,83.46
2023-03-05T08:54:48.815Z,83.49
2023-03-05T08:57:17.545Z,83.44
2023-03-05T08:59:46.566Z,82.42
2023-03-05T09:02:13.529Z,82.10
2023-03-05T09:04:43.096Z,81.39
2023-03-05T09:07:18.018Z,81.62
2023-03-05T09:09:48.535Z,82.80
2023-03-05T09:12:21.550Z,80.87
2023-03-05T09:14:50.541Z,82.05
2023-03-05T09:17:19.885Z,80.65
2023-03-05T09:19:46.212Z,79.54
2023-03-05T09:22:12.576Z,81.40
2023-03-05T09:24:41.622Z,79.71
2023-03-05T09:27:08.043Z,80.54
2023-03-05T09:29:34.531Z,81.73
2023-03-05T09:32:01.080Z,82.26
2023-03-05T09:34:29.301Z,80.52
2023-03-05T09:36:55.616Z,81.25
2023-03-05T09:39:24.801Z,80.85
2023-03-05T09:42:00.643Z,80.92
2023-03-05T09:44:57.990Z,80.90
2023-03-05T09:48:16.795Z,78.06
2023-03-05T09:51:03.476Z,78.63
2023-03-05T09:53:46.544Z,79.13
2023-03-05T09:56:22.685Z,79.01
2023-03-05T09:59:01.962Z,78.66
2023-03-05T10:01:38.323Z,77.78
2023-03-05T10:04:12.865Z,76.79
2023-03-05T10:07:08.716Z,76.84
2023-03-05T10:10:16.335Z,76.88
2023-03-05T10:12:53.795Z,75.63
2023-03-05T10:15:55.864Z,73.31
2023-03-05T10:18:30.590Z,73.88
2023-03-05T10:21:00.958Z,74.26
2023-03-05T10:23:31.979Z,72.37
2023-03-05T10:26:09.727Z,74.22
2023-03-05T10:29:05.370Z,72.96
2023-03-05T10:31:58.389Z,71.78
2023-03-05T10:34:55.494Z,71.97
2023-03-05T10:37:54.162Z,71.27
2023-03-05T10:40:45.542Z,70.83
2023-03-05T10:43:34.859Z,69.07
2023-03-05T10:46:04.672Z,67.78
2023-03-05T10:48:43.443Z,68.08
2023-03-05T10:51:19.085Z,67.01
2023-03-05T10:53:50.441Z,65.67
2023-03-05T10:56:23.790Z,67.75
2023-03-05T10:58:50.243Z,67.51
2023-03-05T11:01:21.615Z,68.94
2023-03-05T11:03:59.924Z,69.52
2023-03-05T11:06:38.109Z,67.28
2023-03-05T11:09:32.176Z,66.19
2023-03-05T11:12:15.485Z,65.20
2023-03-05T11:15:05.476Z,66.66
2023-03-05T11:17:42.324Z,64.56
2023-03-05T11:20:26.838Z,61.30
2023-03-05T11:23:05.409Z,61.36
2023-03-05T11:25:34.268Z,61.92
2023-03-05T11:28:02.266Z,61.70
2023-03-05T11:30:36.814Z,62.98
2023-03-05T11:33:20.653Z,62.03
2023-03-05T11:35:49.159Z,62.02
2023-03-05T11:38:35.108Z,59.73
2023-03-05T11:41:01.755Z,59.44
2023-03-05T11:43:30.005Z,58.30
2023-03-05T11:46:05.075Z,57.76
2023-03-05T11:48:44.491Z,56.50
2023-03-05T11:51:40.652Z,58.95
2023-03-05T11:54:12.741Z,58.50
2023-03-05T11:56:42.938Z,57.88
2023-03-05T11:59:23.140Z,56.60
2023-03-05T12:01:52.594Z,58.79
2023-03-05T12:04:20.256Z,54.90
2023-03-05T12:06:55.706Z,53.74
2023-03-05T12:09:42.401Z,52.97
2023-03-05T12:12:38.738Z,54.81
2023-03-05T12:15:32.926Z,55.82
2023-03-05T12:18:26.820Z,55.03
2023-03-05T12:20:59.170Z,56.66
2023-03-05T12:23:32.841Z,56.62
2023-03-05T12:26:01.766Z,55.54
2023-03-05T12:28:33.943Z,55.42
2023-03-05T12:31:06.059Z,54.29
2023-03-05T12:33:46.990Z,52.36
2023-03-05T12:36:25.018Z,51.05
2023-03-05T12:38:56.911Z,51.69
2023-03-05T12:41:23.161Z,50.67
2023-03-05T12:44:04.830Z,52.68
2023-03-05T12:46:39.053Z,50.33
2023-03-05T12:49:28.484Z,52.71
2023-03-05T12:52:05.753Z,53.63
2023-03-05T12:54:37.722Z,54.73
2023-03-05T12:57:15.384Z,55.89
2023-03-05T12:59:58.500Z,55.83
2023-03-05T13:02:39.349Z,55.74
2023-03-05T13:05:26.288Z,53.27
2023-03-05T13:08:08.699Z,54.73
2023-03-05T13:10:34.923Z,55.58
2023-03-05T13:13:01.358Z,54.42
2023-03-05T13:15:38.675Z,54.41
2023-03-05T13:18:05.814Z,55.13
2023-03-05T13:20:37.937Z,55.13
2023-03-05T13:23:20.062Z,56.26
2023-03-05T13:25:59.608Z,57.82
2023-03-05T13:28:26.744Z,58.21
2023-03-05T13:30:57.017Z,58.01
2023-03-05T13:33:30.143Z,59.39
2023-03-05T13:35:56.659Z,58.34
2023-03-05T13:38:31.402Z,58.12
2023-03-05T13:41:07.083Z,59.98
2023-03-05T13:43:44.162Z,60.19
2023-03-05T13:46:10.924Z,59.71
2023-03-05T13:48:37.383Z,60.73
2023-03-05T13:51:04.205Z,60.48
2023-03-05T13:53:40.352Z,62.29
2023-03-05T13:56:12.471Z,60.04
2023-03-05T13:58:47.888Z,59.28
2023-03-05T14:01:28.691Z,58.37
2023-03-05T14:04:05.078Z,59.80
2023-03-05T14:06:32.645Z,59.43
2023-03-05T14:09:24.360Z,60.91
2023-03-05T14:12:00.914Z,61.36
2023-03-05T14:14:28.962Z,60.72
2023-03-05T14:16:55.684Z,60.84
2023-03-05T14:19:35.391Z,59.84
2023-03-05T14:22:06.134Z,58.70
2023-03-05T14:24:33.003Z,58.83
2023-03-05T14:27:06.103Z,58.36
2023-03-05T14:29:32.789Z,55.48
2023-03-05T14:32:02.591Z,54.88
2023-03-05T14:34:36.546Z,53.15
2023-03-05T14:37:21.590Z,50.38
2023-03-05T14:39:55.620Z,50.73
2023-03-05T14:42:30.681Z,51.63
2023-03-05T14:45:09.608Z,53.12
2023-03-05T14:47:38.549Z,54.63
2023-03-05T14:50:07.343Z,56.59
2023-03-05T14:52:36.721Z,58.19
2023-03-05T14:55:06.893Z,59.41
2023-03-05T14:57:33.487Z,60.20
2023-03-05T14:59:59.792Z,61.29
2023-03-05T15:02:29.135Z,63.18
2023-03-05T15:04:55.593Z,65.28
2023-03-05T15:07:34.383Z,66.08
2023-03-05T15:10:06.557Z,67.16
2023-03-05T15:12:33.095Z,69.15
2023-03-05T15:14:59.501Z,68.12
2023-03-05T15:17:36.461Z,69.16
2023-03-05T15:20:05.377Z,70.34
2023-03-05T15:22:31.673Z,69.95
2023-03-05T15:24:58.247Z,70.54
2023-03-05T15:27:26.798Z,71.52
2023-03-05T15:30:00.390Z,71.42
2023-03-05T15:32:30.029Z,72.04
2023-03-05T15:34:57.190Z,72.73
2023-03-05T15:37:23.691Z,72.45
2023-03-05T15:39:50.046Z,73.05
2023-03-05T15:42:17.699Z,73.06
2023-03-05T15:44:44.413Z,72.93
2023-03-05T15:47:10.938Z,73.24
2023-03-05T15:49:37.258Z,73.71
2023-03-05T15:52:03.791Z,74.19
2023-03-05T15:54:30.074Z,73.91
2023-03-05T15:56:56.410Z,72.97
2023-03-05T15:59:22.734Z,73.54
2023-03-05T16:01:54.148Z,73.93
2023-03-05T16:04:20.583Z,74.71
2023-03-05T16:06:49.301Z,75.51
2023-03-05T16:09:17.592Z,75.58
2023-03-05T16:11:44.612Z,75.55
2023-03-05T16:14:11.514Z,75.56
2023-03-05T16:16:41.202Z,76.62
2023-03-05T16:19:11.010Z,78.14
2023-03-05T16:21:37.547Z,77.35
2023-03-05T16:24:04.002Z,76.81
2023-03-05T16:26:30.468Z,76.74
2023-03-05T16:28:56.849Z,77.47
2023-03-05T16:31:23.428Z,76.79
2023-03-05T16:33:49.800Z,77.35
2023-03-05T16:36:16.444Z,77.17
2023-03-05T16:38:42.999Z,77.43
2023-03-05T16:41:09.366Z,77.07
2023-03-05T16:43:38.463Z,76.55
2023-03-05T16:46:05.007Z,76.07
2023-03-05T16:48:31.481Z,76.91
2023-03-05T16:50:59.514Z,76.65
2023-03-05T16:53:25.862Z,76.88
2023-03-05T16:55:52.476Z,76.77
2023-03-05T16:58:18.892Z,75.97
2023-03-05T17:00:46.438Z,74.81
2023-03-05T17:03:12.772Z,74.16
2023-03-05T17:05:41.384Z,71.94
2023-03-05T17:08:07.798Z,70.61
2023-03-05T17:10:34.288Z,70.81
2023-03-05T17:13:00.665Z,70.37
2023-03-05T17:15:27.108Z,70.89
2023-03-05T17:17:54.592Z,70.25
2023-03-05T17:20:21.141Z,70.67
2023-03-05T17:22:48.893Z,70.65
2023-03-05T17:25:18.021Z,71.24
2023-03-05T17:27:44.425Z,71.22
2023-03-05T17:30:11.287Z,71.06
2023-03-05T17:32:40.429Z,71.14
2023-03-05T17:35:23.008Z,71.30
2023-03-05T17:37:49.954Z,71.84
2023-03-05T17:40:17.466Z,71.16
2023-03-05T17:42:43.926Z,72.27
2023-03-05T17:45:11.180Z,72.29
2023-03-05T17:47:38.875Z,72.69
2023-03-05T17:50:09.456Z,73.14
2023-03-05T17:52:36.774Z,74.18
2023-03-05T17:55:10.296Z,73.51
2023-03-05T17:57:39.259Z,72.95
2023-03-05T18:00:15.452Z,73.74
2023-03-05T18:02:44.440Z,73.49
2023-03-05T18:05:11.952Z,73.92
2023-03-05T18:07:42.175Z,74.40
2023-03-05T18:10:11.754Z,74.90
2023-03-05T18:12:38.449Z,75.20
2023-03-05T18:15:10.311Z,75.16
2023-03-05T18:17:38.189Z,75.89
2023-03-05T18:20:07.970Z,76.19
2023-03-05T18:22:35.417Z,75.15
2023-03-05T18:25:06.022Z,75.95
2023-03-05T18:27:42.556Z,75.82
2023-03-05T18:30:09.762Z,76.17
2023-03-05T18:32:36.113Z,76.53
2023-03-05T18:35:04.909Z,76.36
2023-03-05T18:37:33.852Z,76.73
2023-03-05T18:40:00.396Z,77.33
2023-03-05T18:42:26.946Z,77.00
2023-03-05T18:44:54.506Z,77.93
2023-03-05T18:47:23.885Z,78.33
2023-03-05T18:49:53.858Z,78.22
2023-03-05T18:52:20.341Z,78.22
2023-03-05T18:54:49.540Z,78.02
2023-03-05T18:57:18.191Z,78.25
2023-03-05T18:59:44.749Z,79.25
2023-03-05T19:02:19.420Z,80.06
2023-03-05T19:04:45.733Z,80.16
2023-03-05T19:07:22.466Z,79.96
2023-03-05T19:09:57.071Z,80.34
2023-03-05T19:12:29.050Z,80.24
2023-03-05T19:14:55.407Z,80.12
2023-03-05T19:17:21.807Z,80.36
2023-03-05T19:19:56.057Z,81.01
2023-03-05T19:22:22.409Z,80.69
2023-03-05T19:24:50.793Z,81.32
2023-03-05T19:27:17.172Z,81.49
2023-03-05T19:29:49.388Z,81.08
2023-03-05T19:32:17.653Z,82.02
2023-03-05T19:34:44.579Z,81.24
2023-03-05T19:37:14.083Z,81.35
2023-03-05T19:39:48.270Z,81.03
2023-03-05T19:42:14.818Z,81.78
2023-03-05T19:44:41.281Z,80.83
2023-03-05T19:47:07.932Z,80.93
2023-03-05T19:49:37.182Z,81.29
2023-03-05T19:52:04.225Z,81.77
2023-03-05T19:54:35.290Z,81.76
2023-03-05T19:57:01.658Z,82.57
2023-03-05T19:59:28.062Z,82.74
2023-03-05T20:01:54.529Z,82.68
2023-03-05T20:04:22.800Z,82.08
2023-03-05T20:06:55.423Z,82.55
2023-03-05T20:09:21.728Z,82.20
2023-03-05T20:11:48.113Z,82.23
2023-03-05T20:14:14.663Z,81.48
2023-03-05T20:16:42.310Z,81.80
2023-03-05T20:19:14.767Z,82.17
2023-03-05T20:21:44.442Z,81.85
2023-03-05T20:24:14.064Z,82.19
2023-03-05T20:26:42.177Z,81.61
2023-03-05T20:29:19.753Z,81.94
2023-03-05T20:31:46.867Z,82.21
2023-03-05T20:34:15.712Z,81.81
2023-03-05T20:36:43.292Z,82.46
2023-03-05T20:39:15.908Z,82.51
2023-03-05T20:41:48.567Z,82.43
2023-03-05T20:44:15.160Z,82.91
2023-03-05T20:46:49.997Z,82.63
2023-03-05T20:49:16.516Z,82.84
2023-03-05T20:51:43.078Z,83.11
2023-03-05T20:54:12.648Z,84.11
2023-03-05T20:56:39.079Z,84.39
2023-03-05T20:59:07.837Z,83.47
2023-03-05T21:01:37.729Z,83.44
2023-03-05T21:04:09.313Z,83.56
2023-03-05T21:06:38.545Z,83.97
2023-03-05T21:09:08.158Z,83.76
2023-03-05T21:11:34.502Z,83.89
2023-03-05T21:14:01.168Z,83.73
2023-03-05T21:16:29.957Z,84.41
2023-03-05T21:18:59.210Z,84.04
2023-03-05T21:21:28.485Z,84.32
2023-03-05T21:23:58.511Z,83.90
2023-03-05T21:26:24.872Z,83.89
2023-03-05T21:28:51.298Z,84.31
2023-03-05T21:31:20.333Z,84.73
2023-03-05T21:33:59.321Z,85.35
2023-03-05T21:36:33.226Z,84.23
2023-03-05T21:39:05.282Z,84.74
2023-03-05T21:41:31.756Z,84.68
2023-03-05T21:43:58.121Z,84.53
2023-03-05T21:46:30.545Z,85.27
2023-03-05T21:49:01.957Z,85.20
2023-03-05T21:51:28.267Z,85.15
2023-03-05T21:53:54.558Z,85.49
2023-03-05T21:56:23.191Z,85.74
2023-03-05T21:58:51.057Z,85.39
2023-03-05T22:01:19.697Z,85.32
2023-03-05T22:03:49.164Z,85.87
2023-03-05T22:06:18.376Z,85.44
2023-03-05T22:08:45.031Z,85.40
2023-03-05T22:11:13.187Z,86.32
2023-03-05T22:13:42.264Z,85.77
2023-03-05T22:16:09.688Z,86.31
2023-03-05T22:18:38.534Z,86.40
2023-03-05T22:21:05.533Z,86.63
2023-03-05T22:23:36.890Z,86.14
2023-03-05T22:26:07.322Z,86.15
2023-03-05T22:28:35.140Z,86.38
2023-03-05T22:31:01.645Z,87.09
2023-03-05T22:33:28.899Z,86.96
2023-03-05T22:36:04.171Z,87.13
2023-03-05T22:38:30.552Z,86.57
2023-03-05T22:40:59.201Z,86.70
2023-03-05T22:43:25.570Z,86.93
2023-03-05T22:45:51.953Z,87.91
2023-03-05T22:48:18.498Z,88.84
2023-03-05T22:50:44.867Z,87.99
2023-03-05T22:53:12.063Z,88.58
2023-03-05T22:55:43.130Z,88.90
2023-03-05T22:58:11.573Z,88.28
2023-03-05T23:00:38.065Z,88.96
2023-03-05T23:03:04.882Z,88.59
2023-03-05T23:05:31.170Z,89.45
2023-03-05T23:08:05.412Z,89.31
2023-03-05T23:10:31.805Z,89.09
2023-03-05T23:12:59.731Z,89.62
2023-03-05T23:15:32.462Z,89.71
2023-03-05T23:17:59.280Z,90.52
2023-03-05T23:20:31.368Z,89.74
2023-03-05T23:23:03.503Z,90.64
2023-03-05T23:25:35.739Z,89.94
2023-03-05T23:28:02.760Z,89.77
2023-03-05T23:30:31.030Z,90.41
2023-03-05T23:33:04.239Z,90.75
2023-03-05T23:35:34.165Z,90.59
2023-03-05T23:38:04.232Z,91.18
2023-03-05T23:40:33.721Z,90.26
2023-03-05T23:43:00.569Z,91.02
2023-03-05T23:45:33.423Z,91.49
2023-03-05T23:48:04.844Z,91.06
2023-03-05T23:50:33.915Z,91.35
2023-03-05T23:53:01.996Z,91.72
2023-03-05T23:55:33.073Z,91.55
2023-03-05T23:58:00.606Z,92.67
